Time;durP1;ratioP1;P1;durP2;ratioP2;P2;SDS_P1;SDS_P2;PMS_P1;PMS_P2;Temp;Humidity;BMP_temperature;BMP_pressure;BME280_temperature;BME280_humidity;BME280_pressure;Samples;Min_cycle;Max_cycle;Signal;HPM_P1;HPM_P2
2023/10/20 00:00:21;;;;;;;3.87;2.73;;;;;;;;;;5063029;27;88824;-54
2023/10/20 00:02:49;;;;;;;3.50;2.43;;;;;;;;;;5063502;27;87666;-54
2023/10/20 00:05:17;;;;;;;2.27;1.83;;;;;;;;;;5062224;27;89840;-54
2023/10/20 00:07:46;;;;;;;5.77;2.73;;;;;;;;;;5062698;27;88979;-54
2023/10/20 00:10:15;;;;;;;2.17;1.90;;;;;;;;;;5062842;27;88633;-54
2023/10/20 00:12:43;;;;;;;2.23;1.73;;;;;;;;;;5063422;27;87755;-54
2023/10/20 00:15:14;;;;;;;1.87;1.63;;;;;;;;;;5062262;27;88525;-54
2023/10/20 00:17:45;;;;;;;3.73;2.57;;;;;;;;;;5060813;27;89185;-53
2023/10/20 00:20:13;;;;;;;3.03;2.03;;;;;;;;;;5062614;27;88834;-54
2023/10/20 00:22:42;;;;;;;8.47;2.53;;;;;;;;;;5063155;27;87719;-54
2023/10/20 00:25:12;;;;;;;2.63;1.43;;;;;;;;;;5063491;27;88488;-54
2023/10/20 00:27:41;;;;;;;4.03;2.07;;;;;;;;;;5063760;27;88029;-54
2023/10/20 00:30:11;;;;;;;4.40;2.10;;;;;;;;;;5062927;27;87813;-54
2023/10/20 00:32:41;;;;;;;4.97;2.57;;;;;;;;;;5062892;27;87762;-54
2023/10/20 00:35:13;;;;;;;2.70;1.87;;;;;;;;;;5063165;27;87437;-54
2023/10/20 00:37:42;;;;;;;1.97;1.77;;;;;;;;;;5063504;27;88016;-53
2023/10/20 00:40:10;;;;;;;4.93;2.40;;;;;;;;;;5062889;27;87959;-53
2023/10/20 00:42:39;;;;;;;2.70;1.47;;;;;;;;;;5063678;27;87415;-53
2023/10/20 00:45:08;;;;;;;3.83;1.90;;;;;;;;;;5062438;27;89668;-53
2023/10/20 00:47:37;;;;;;;2.63;1.80;;;;;;;;;;5063107;27;88947;-53
2023/10/20 00:50:09;;;;;;;3.17;1.90;;;;;;;;;;5063034;27;87312;-53
2023/10/20 00:52:37;;;;;;;3.97;2.03;;;;;;;;;;5063600;27;87633;-53
2023/10/20 00:55:07;;;;;;;5.03;2.70;;;;;;;;;;5062922;27;89649;-53
2023/10/20 00:57:35;;;;;;;2.77;1.90;;;;;;;;;;5061877;27;90346;-53
2023/10/20 01:00:08;;;;;;;2.83;1.93;;;;;;;;;;5062613;27;89811;-53
2023/10/20 01:02:37;;;;;;;1.90;1.57;;;;;;;;;;5063225;27;87474;-53
2023/10/20 01:05:08;;;;;;;2.70;1.83;;;;;;;;;;5063123;27;88505;-53
2023/10/20 01:07:37;;;;;;;2.23;1.90;;;;;;;;;;5062547;27;89278;-53
2023/10/20 01:10:06;;;;;;;2.43;1.33;;;;;;;;;;5062414;27;87956;-53
2023/10/20 01:12:34;;;;;;;4.40;2.00;;;;;;;;;;5062703;27;87580;-53
2023/10/20 01:15:05;;;;;;;4.77;2.37;;;;;;;;;;5062408;27;88323;-53
2023/10/20 01:17:33;;;;;;;2.63;1.73;;;;;;;;;;5061786;27;89403;-53
2023/10/20 01:20:03;;;;;;;4.30;1.73;;;;;;;;;;5062736;27;88846;-53
2023/10/20 01:22:33;;;;;;;1.93;1.77;;;;;;;;;;5044723;27;87981;-53
2023/10/20 01:25:03;;;;;;;3.27;2.00;;;;;;;;;;5042457;28;88407;-53
2023/10/20 01:27:31;;;;;;;2.83;2.30;;;;;;;;;;5058533;27;89051;-53
2023/10/20 01:29:59;;;;;;;2.50;1.67;;;;;;;;;;5062211;27;88770;-53
2023/10/20 01:32:28;;;;;;;3.80;2.13;;;;;;;;;;5062349;27;87255;-53
2023/10/20 01:34:56;;;;;;;3.00;1.83;;;;;;;;;;5062445;27;88412;-53
2023/10/20 01:37:25;;;;;;;2.03;1.73;;;;;;;;;;5062021;27;89125;-53
2023/10/20 01:39:53;;;;;;;2.73;1.67;;;;;;;;;;5062781;27;88953;-53
2023/10/20 01:42:23;;;;;;;1.70;1.60;;;;;;;;;;5061686;27;87802;-53
2023/10/20 01:44:51;;;;;;;5.60;2.10;;;;;;;;;;5061743;27;89831;-53
2023/10/20 01:47:19;;;;;;;2.30;1.57;;;;;;;;;;5060669;27;90022;-53
2023/10/20 01:49:48;;;;;;;2.37;1.67;;;;;;;;;;5061844;27;89788;-53
2023/10/20 01:52:16;;;;;;;1.60;1.50;;;;;;;;;;5062048;27;87339;-54
2023/10/20 01:54:45;;;;;;;2.00;1.70;;;;;;;;;;5062317;27;89613;-54
2023/10/20 01:57:13;;;;;;;2.03;1.30;;;;;;;;;;5060897;27;88093;-53
2023/10/20 01:59:43;;;;;;;2.73;1.47;;;;;;;;;;5061138;27;88917;-53
2023/10/20 02:02:11;;;;;;;1.90;1.70;;;;;;;;;;5061145;27;87534;-53
2023/10/20 02:04:40;;;;;;;1.90;1.50;;;;;;;;;;5061469;27;89784;-53
2023/10/20 02:07:08;;;;;;;3.87;1.90;;;;;;;;;;5060439;27;89076;-53
2023/10/20 02:09:37;;;;;;;4.43;1.80;;;;;;;;;;5058591;27;88820;-53
2023/10/20 02:12:05;;;;;;;1.70;1.60;;;;;;;;;;5060541;27;87825;-53
2023/10/20 02:14:34;;;;;;;2.83;1.90;;;;;;;;;;5060698;27;89695;-53
2023/10/20 02:17:04;;;;;;;2.10;1.50;;;;;;;;;;5060933;27;89150;-53
2023/10/20 02:19:32;;;;;;;2.67;1.90;;;;;;;;;;5060869;27;88675;-54
2023/10/20 02:22:01;;;;;;;3.83;1.70;;;;;;;;;;5060466;27;87311;-53
2023/10/20 02:24:29;;;;;;;1.77;1.23;;;;;;;;;;5061295;27;89573;-53
2023/10/20 02:26:58;;;;;;;3.60;2.10;;;;;;;;;;5057722;27;88154;-53
2023/10/20 02:29:27;;;;;;;1.77;1.40;;;;;;;;;;5060570;27;87748;-53
2023/10/20 02:31:55;;;;;;;2.13;1.57;;;;;;;;;;5061041;27;87738;-53
2023/10/20 02:34:25;;;;;;;2.30;1.47;;;;;;;;;;5060399;27;89620;-53
2023/10/20 02:36:53;;;;;;;2.13;1.93;;;;;;;;;;5060383;27;90144;-53
2023/10/20 02:39:22;;;;;;;1.90;1.60;;;;;;;;;;5060528;27;89809;-53
2023/10/20 02:41:50;;;;;;;1.70;1.60;;;;;;;;;;5060908;27;87662;-53
2023/10/20 02:44:18;;;;;;;2.30;1.60;;;;;;;;;;5057606;27;89583;-53
2023/10/20 02:46:47;;;;;;;1.90;1.60;;;;;;;;;;5060087;27;89277;-53
2023/10/20 02:49:15;;;;;;;2.17;1.87;;;;;;;;;;5058199;27;89684;-53
2023/10/20 02:51:45;;;;;;;2.53;1.70;;;;;;;;;;5060615;27;87665;-53
2023/10/20 02:54:13;;;;;;;2.77;1.93;;;;;;;;;;5059294;27;88540;-53
2023/10/20 02:56:42;;;;;;;2.00;1.67;;;;;;;;;;5060561;27;88997;-53
2023/10/20 02:59:12;;;;;;;5.27;2.37;;;;;;;;;;5058886;27;87967;-53
2023/10/20 03:01:40;;;;;;;2.37;1.93;;;;;;;;;;5057817;27;88501;-56
2023/10/20 03:04:09;;;;;;;3.40;1.77;;;;;;;;;;5060002;27;89593;-56
2023/10/20 03:06:37;;;;;;;3.00;2.30;;;;;;;;;;5057242;27;88061;-56
2023/10/20 03:09:07;;;;;;;2.97;2.03;;;;;;;;;;5059823;27;87479;-56
2023/10/20 03:11:35;;;;;;;3.80;2.60;;;;;;;;;;5057488;27;87667;-56
2023/10/20 03:14:04;;;;;;;4.60;3.07;;;;;;;;;;5056790;27;89666;-59
2023/10/20 03:16:34;;;;;;;3.93;3.53;;;;;;;;;;5059429;27;87886;-59
2023/10/20 03:19:04;;;;;;;3.57;2.83;;;;;;;;;;5061121;27;87791;-59
2023/10/20 03:21:32;;;;;;;3.33;2.90;;;;;;;;;;5063952;27;87648;-58
2023/10/20 03:24:00;;;;;;;7.37;3.90;;;;;;;;;;5063631;27;89680;-58
2023/10/20 03:26:30;;;;;;;6.30;3.43;;;;;;;;;;5063752;27;88914;-58
2023/10/20 03:28:59;;;;;;;3.87;3.47;;;;;;;;;;5063853;27;89819;-58
2023/10/20 03:31:27;;;;;;;4.50;3.43;;;;;;;;;;5064480;27;87625;-58
2023/10/20 03:33:56;;;;;;;3.87;3.17;;;;;;;;;;5064126;27;88738;-58
2023/10/20 03:36:24;;;;;;;4.23;2.97;;;;;;;;;;5064192;27;88259;-58
2023/10/20 03:38:52;;;;;;;6.97;3.33;;;;;;;;;;5064297;27;87516;-58
2023/10/20 03:41:22;;;;;;;3.87;2.90;;;;;;;;;;5062894;27;87601;-59
2023/10/20 03:43:53;;;;;;;3.40;2.70;;;;;;;;;;5064266;27;88506;-58
2023/10/20 03:46:22;;;;;;;4.03;2.97;;;;;;;;;;5043390;27;89134;-57
2023/10/20 03:48:50;;;;;;;11.27;3.37;;;;;;;;;;5058383;27;87831;-58
2023/10/20 03:51:21;;;;;;;2.87;2.63;;;;;;;;;;5063924;27;87784;-60
2023/10/20 03:53:52;;;;;;;3.30;3.00;;;;;;;;;;5063998;27;89757;-58
2023/10/20 03:56:22;;;;;;;4.60;2.37;;;;;;;;;;5063794;27;89311;-58
2023/10/20 03:58:52;;;;;;;4.67;3.10;;;;;;;;;;5063127;27;88865;-58
2023/10/20 04:01:21;;;;;;;5.07;3.13;;;;;;;;;;5043733;27;87218;-58
2023/10/20 04:03:50;;;;;;;3.20;2.43;;;;;;;;;;5055569;27;88736;-58
2023/10/20 04:06:20;;;;;;;3.93;2.40;;;;;;;;;;5063842;27;89178;-54
2023/10/20 04:08:48;;;;;;;5.33;2.77;;;;;;;;;;5063846;27;88944;-54
2023/10/20 04:11:17;;;;;;;2.60;2.40;;;;;;;;;;5063487;27;87637;-54
2023/10/20 04:13:46;;;;;;;2.43;2.13;;;;;;;;;;5063763;27;89588;-54
2023/10/20 04:16:17;;;;;;;2.43;1.73;;;;;;;;;;5063014;27;90020;-54
2023/10/20 04:18:46;;;;;;;3.73;2.40;;;;;;;;;;5063061;27;89686;-54
2023/10/20 04:21:15;;;;;;;3.83;2.60;;;;;;;;;;5061349;27;87573;-54
2023/10/20 04:23:44;;;;;;;6.70;1.90;;;;;;;;;;5062091;27;89712;-54
2023/10/20 04:26:20;;;;;;;2.27;2.00;;;;;;;;;;5061205;27;89087;-54
2023/10/20 04:29:02;;;;;;;4.03;2.73;;;;;;;;;;5061010;27;87744;-54
2023/10/20 04:43:04;;;;;;;2.10;1.87;;;;;;;;;;5058697;27;87911;-54
2023/10/20 04:49:01;;;;;;;3.40;2.10;;;;;;;;;;5001754;28;89382;-53
2023/10/20 04:51:43;;;;;;;5.43;2.00;;;;;;;;;;5057882;27;87832;-54
2023/10/20 04:54:19;;;;;;;5.03;2.10;;;;;;;;;;5058889;27;87487;-54
2023/10/20 04:57:19;;;;;;;2.87;2.23;;;;;;;;;;5059029;27;88553;-54
2023/10/20 04:59:51;;;;;;;3.73;2.10;;;;;;;;;;5058604;27;89125;-54
2023/10/20 05:02:32;;;;;;;2.57;2.23;;;;;;;;;;5058690;27;88975;-55
2023/10/20 05:05:06;;;;;;;2.30;2.10;;;;;;;;;;5059063;27;87611;-55
2023/10/20 05:07:35;;;;;;;3.00;2.70;;;;;;;;;;5058364;27;88570;-55
2023/10/20 05:10:04;;;;;;;2.13;1.97;;;;;;;;;;5056857;27;88972;-55
2023/10/20 05:12:34;;;;;;;3.93;2.77;;;;;;;;;;5058292;27;88686;-54
2023/10/20 05:15:05;;;;;;;3.20;2.50;;;;;;;;;;5058949;27;87654;-54
2023/10/20 05:17:34;;;;;;;2.83;2.17;;;;;;;;;;5058403;27;90799;-55
2023/10/20 05:20:05;;;;;;;3.50;2.57;;;;;;;;;;5057943;27;89188;-54
2023/10/20 05:22:33;;;;;;;2.87;2.20;;;;;;;;;;5016582;27;1183111;-56
2023/10/20 05:25:02;;;;;;;2.90;1.93;;;;;;;;;;5059953;27;87653;-56
2023/10/20 05:27:31;;;;;;;4.13;2.57;;;;;;;;;;5059885;27;87459;-56
2023/10/20 05:29:59;;;;;;;3.77;2.60;;;;;;;;;;5059211;27;88097;-55
2023/10/20 05:32:31;;;;;;;3.13;2.67;;;;;;;;;;5059063;27;87751;-56
2023/10/20 05:34:59;;;;;;;2.73;2.30;;;;;;;;;;5059131;27;88371;-55
2023/10/20 05:37:29;;;;;;;3.87;2.40;;;;;;;;;;5059327;27;89739;-55
2023/10/20 05:39:58;;;;;;;4.57;2.70;;;;;;;;;;5059112;27;87742;-55
2023/10/20 05:42:26;;;;;;;3.70;2.77;;;;;;;;;;5058403;27;87711;-56
2023/10/20 05:45:03;;;;;;;4.53;3.03;;;;;;;;;;5059366;27;87781;-56
2023/10/20 05:47:31;;;;;;;4.27;2.63;;;;;;;;;;5058580;27;89655;-55
2023/10/20 05:50:01;;;;;;;6.07;3.07;;;;;;;;;;5059068;27;89148;-56
2023/10/20 05:52:30;;;;;;;4.83;2.97;;;;;;;;;;5059030;27;88893;-55
2023/10/20 05:54:59;;;;;;;3.93;2.93;;;;;;;;;;5059167;27;87737;-55
2023/10/20 05:57:28;;;;;;;2.80;2.30;;;;;;;;;;5058036;27;89618;-55
2023/10/20 05:59:59;;;;;;;3.33;2.63;;;;;;;;;;5038362;27;90160;-55
2023/10/20 06:02:27;;;;;;;2.47;2.27;;;;;;;;;;5058844;27;88660;-55
2023/10/20 06:04:56;;;;;;;3.67;2.40;;;;;;;;;;5038872;28;87549;-55
2023/10/20 06:07:24;;;;;;;3.90;2.40;;;;;;;;;;5038212;28;88544;-56
2023/10/20 06:09:54;;;;;;;4.73;2.90;;;;;;;;;;5038201;27;88354;-56
2023/10/20 06:12:23;;;;;;;5.70;3.07;;;;;;;;;;5057212;27;88664;-56
2023/10/20 06:14:51;;;;;;;2.50;2.13;;;;;;;;;;5056115;27;87676;-56
2023/10/20 06:17:20;;;;;;;3.03;2.30;;;;;;;;;;5059995;27;88587;-56
2023/10/20 06:19:48;;;;;;;3.93;2.33;;;;;;;;;;5060230;27;89069;-56
2023/10/20 06:22:17;;;;;;;3.90;2.33;;;;;;;;;;5058909;27;88880;-55
2023/10/20 06:24:47;;;;;;;3.63;2.80;;;;;;;;;;5059914;27;87778;-55
2023/10/20 06:27:17;;;;;;;3.83;2.53;;;;;;;;;;5059399;27;89621;-55
2023/10/20 06:29:48;;;;;;;3.47;2.37;;;;;;;;;;5057581;27;89147;-56
2023/10/20 06:32:31;;;;;;;3.70;2.17;;;;;;;;;;5059549;27;89065;-55
2023/10/20 06:35:00;;;;;;;3.90;2.53;;;;;;;;;;5054607;27;87722;-55
2023/10/20 06:37:35;;;;;;;4.87;2.50;;;;;;;;;;5052245;27;88830;-55
2023/10/20 06:40:04;;;;;;;4.03;2.20;;;;;;;;;;5045978;27;88878;-55
2023/10/20 06:42:33;;;;;;;4.03;2.47;;;;;;;;;;5059987;27;88955;-55
2023/10/20 06:45:04;;;;;;;3.33;2.30;;;;;;;;;;5061362;27;87462;-55
2023/10/20 06:47:34;;;;;;;4.30;2.93;;;;;;;;;;5060464;27;89815;-55
2023/10/20 06:50:06;;;;;;;4.53;2.87;;;;;;;;;;5060213;27;90079;-55
2023/10/20 06:52:35;;;;;;;4.67;2.10;;;;;;;;;;5058726;27;89680;-55
2023/10/20 06:55:04;;;;;;;5.07;2.53;;;;;;;;;;5061296;27;87610;-55
2023/10/20 06:57:53;;;;;;;4.93;2.63;;;;;;;;;;5053640;27;88617;-55
2023/10/20 07:00:22;;;;;;;2.37;1.80;;;;;;;;;;5060634;27;89191;-55
2023/10/20 07:02:50;;;;;;;2.50;2.27;;;;;;;;;;5064296;27;87649;-55
2023/10/20 07:05:20;;;;;;;4.90;2.83;;;;;;;;;;5081549;27;87635;-55
2023/10/20 07:07:48;;;;;;;2.57;2.00;;;;;;;;;;5073237;27;88403;-55
2023/10/20 07:10:18;;;;;;;4.63;2.40;;;;;;;;;;5060286;27;89013;-56
2023/10/20 07:12:46;;;;;;;3.07;2.77;;;;;;;;;;5060428;27;88917;-56
2023/10/20 07:15:17;;;;;;;2.47;1.70;;;;;;;;;;5060543;27;87813;-56
2023/10/20 07:17:45;;;;;;;4.20;2.33;;;;;;;;;;5060379;27;89682;-56
2023/10/20 07:20:14;;;;;;;2.83;1.97;;;;;;;;;;5060128;27;89199;-56
2023/10/20 07:22:42;;;;;;;4.53;2.27;;;;;;;;;;5059976;27;87608;-56
2023/10/20 07:25:11;;;;;;;2.83;2.27;;;;;;;;;;5060191;27;87624;-56
2023/10/20 07:27:39;;;;;;;2.90;2.23;;;;;;;;;;5060539;27;89837;-56
2023/10/20 07:30:10;;;;;;;3.50;2.40;;;;;;;;;;5059607;27;88268;-56
2023/10/20 07:32:40;;;;;;;5.80;2.50;;;;;;;;;;5060199;27;88794;-56
2023/10/20 07:35:11;;;;;;;4.23;2.57;;;;;;;;;;5060170;27;87731;-56
2023/10/20 07:37:40;;;;;;;5.07;2.73;;;;;;;;;;5059870;27;87333;-56
2023/10/20 07:40:09;;;;;;;3.30;2.37;;;;;;;;;;5059709;27;89412;-56
2023/10/20 07:42:39;;;;;;;3.77;2.33;;;;;;;;;;5060418;27;89788;-56
2023/10/20 07:45:10;;;;;;;2.33;1.93;;;;;;;;;;5060850;27;87526;-56
2023/10/20 07:47:38;;;;;;;2.63;2.00;;;;;;;;;;5059822;27;88669;-56
2023/10/20 07:50:09;;;;;;;4.13;1.73;;;;;;;;;;5059822;27;89327;-56
2023/10/20 07:52:38;;;;;;;3.50;2.70;;;;;;;;;;5060296;27;87610;-56
2023/10/20 07:55:06;;;;;;;3.17;1.70;;;;;;;;;;5060561;27;87624;-56
2023/10/20 07:57:35;;;;;;;3.63;2.03;;;;;;;;;;5059808;27;89539;-53
2023/10/20 08:00:03;;;;;;;3.67;2.23;;;;;;;;;;5060099;27;88207;-59
2023/10/20 08:02:32;;;;;;;1.83;1.70;;;;;;;;;;5059419;27;88692;-56
2023/10/20 08:05:02;;;;;;;2.90;1.90;;;;;;;;;;5060556;27;87818;-55
2023/10/20 08:07:33;;;;;;;4.97;2.27;;;;;;;;;;5060259;27;88512;-55
2023/10/20 08:10:01;;;;;;;2.23;1.53;;;;;;;;;;5063605;27;88150;-55
2023/10/20 08:12:29;;;;;;;3.17;2.37;;;;;;;;;;5063302;27;88757;-55
2023/10/20 08:14:58;;;;;;;3.37;1.73;;;;;;;;;;5063292;27;87717;-55
2023/10/20 08:17:27;;;;;;;1.70;1.60;;;;;;;;;;5062746;27;89618;-55
2023/10/20 08:19:55;;;;;;;1.60;1.50;;;;;;;;;;5062919;27;88575;-55
2023/10/20 08:22:24;;;;;;;2.73;1.53;;;;;;;;;;5062726;27;87812;-55
2023/10/20 08:24:54;;;;;;;2.50;1.33;;;;;;;;;;5063835;27;87605;-57
2023/10/20 08:27:23;;;;;;;1.20;1.10;;;;;;;;;;5062893;27;89626;-56
2023/10/20 08:29:55;;;;;;;3.77;1.90;;;;;;;;;;5062812;27;88985;-56
2023/10/20 08:32:23;;;;;;;2.47;1.70;;;;;;;;;;5063096;27;88526;-57
2023/10/20 08:34:52;;;;;;;2.10;1.50;;;;;;;;;;5063603;27;87599;-56
2023/10/20 08:37:21;;;;;;;1.57;1.47;;;;;;;;;;5062994;27;89872;-56
2023/10/20 08:39:49;;;;;;;2.30;1.77;;;;;;;;;;5063130;27;89130;-56
2023/10/20 08:42:19;;;;;;;1.40;1.10;;;;;;;;;;5063125;27;87713;-56
2023/10/20 08:44:48;;;;;;;2.47;2.07;;;;;;;;;;5063509;27;87626;-56
2023/10/20 08:47:17;;;;;;;5.23;1.80;;;;;;;;;;5063136;27;88529;-56
2023/10/20 08:49:46;;;;;;;2.00;1.50;;;;;;;;;;5063030;27;88091;-56
2023/10/20 08:52:14;;;;;;;1.40;1.27;;;;;;;;;;5063029;27;87423;-56
2023/10/20 08:54:46;;;;;;;1.07;0.83;;;;;;;;;;5062896;27;87958;-56
2023/10/20 08:57:14;;;;;;;2.30;1.37;;;;;;;;;;5062615;27;88512;-56
2023/10/20 08:59:51;;;;;;;2.17;1.20;;;;;;;;;;5063076;27;88032;-56
2023/10/20 09:02:20;;;;;;;1.77;1.10;;;;;;;;;;5063246;27;88984;-56
2023/10/20 09:04:51;;;;;;;0.97;0.80;;;;;;;;;;5063422;27;87689;-56
2023/10/20 09:07:19;;;;;;;1.27;1.17;;;;;;;;;;5062938;27;88316;-56
2023/10/20 09:09:49;;;;;;;1.60;1.13;;;;;;;;;;5062911;27;89036;-56
2023/10/20 09:12:17;;;;;;;2.27;1.57;;;;;;;;;;5063191;27;87547;-55
2023/10/20 09:14:46;;;;;;;1.40;1.17;;;;;;;;;;5062969;27;87646;-55
2023/10/20 09:17:23;;;;;;;1.37;1.00;;;;;;;;;;5061348;27;88534;-55
2023/10/20 09:19:52;;;;;;;1.33;1.00;;;;;;;;;;5062133;27;89064;-55
2023/10/20 09:22:32;;;;;;;1.40;0.97;;;;;;;;;;5062421;27;89948;-55
2023/10/20 09:25:00;;;;;;;1.17;0.87;;;;;;;;;;5062957;27;87247;-55
2023/10/20 09:27:31;;;;;;;0.80;0.80;;;;;;;;;;5062545;27;89661;-55
2023/10/20 09:30:00;;;;;;;1.23;0.90;;;;;;;;;;5062218;27;89120;-55
2023/10/20 09:32:29;;;;;;;0.70;0.70;;;;;;;;;;5062449;27;87764;-55
2023/10/20 09:34:58;;;;;;;1.27;1.00;;;;;;;;;;5062762;27;87407;-55
2023/10/20 09:37:26;;;;;;;0.80;0.80;;;;;;;;;;5062549;27;87410;-55
2023/10/20 09:39:55;;;;;;;2.90;0.73;;;;;;;;;;5062353;27;88096;-55
2023/10/20 09:42:25;;;;;;;1.87;1.10;;;;;;;;;;5062146;27;87885;-55
2023/10/20 09:44:55;;;;;;;1.70;1.23;;;;;;;;;;5062182;27;87913;-55
2023/10/20 09:47:24;;;;;;;1.70;1.03;;;;;;;;;;5062217;27;88764;-55
2023/10/20 09:49:54;;;;;;;0.80;0.73;;;;;;;;;;5062044;27;89064;-55
2023/10/20 09:52:23;;;;;;;0.57;0.57;;;;;;;;;;5062226;27;89677;-55
2023/10/20 09:54:52;;;;;;;1.33;1.07;;;;;;;;;;5062322;27;87617;-55
2023/10/20 09:57:21;;;;;;;1.97;0.80;;;;;;;;;;5061822;27;89660;-55
2023/10/20 09:59:52;;;;;;;1.10;0.87;;;;;;;;;;5061741;27;89082;-55
2023/10/20 10:02:28;;;;;;;1.27;0.90;;;;;;;;;;5062392;27;88826;-55
2023/10/20 10:04:58;;;;;;;1.40;1.30;;;;;;;;;;5062259;27;87551;-55
2023/10/20 10:07:30;;;;;;;0.80;0.80;;;;;;;;;;5061567;27;88531;-56
2023/10/20 10:09:58;;;;;;;2.20;0.70;;;;;;;;;;5061374;27;89984;-55
2023/10/20 10:12:27;;;;;;;1.23;0.70;;;;;;;;;;5061493;27;89756;-55
2023/10/20 10:14:57;;;;;;;1.03;0.53;;;;;;;;;;5062266;27;87575;-55
2023/10/20 10:17:26;;;;;;;3.30;1.10;;;;;;;;;;5061811;27;87403;-55
2023/10/20 10:19:55;;;;;;;0.63;0.63;;;;;;;;;;5061424;27;88216;-56
2023/10/20 10:22:26;;;;;;;0.80;0.80;;;;;;;;;;5061190;27;87890;-55
2023/10/20 10:24:55;;;;;;;0.57;0.57;;;;;;;;;;5062028;27;87051;-56
2023/10/20 10:27:26;;;;;;;0.97;0.73;;;;;;;;;;5061015;27;87212;-55
2023/10/20 10:29:58;;;;;;;1.23;0.77;;;;;;;;;;5061714;27;89249;-55
2023/10/20 10:32:30;;;;;;;1.00;0.90;;;;;;;;;;5061434;27;87293;-55
2023/10/20 10:35:00;;;;;;;0.73;0.73;;;;;;;;;;5061327;27;87751;-55
2023/10/20 10:37:32;;;;;;;1.00;0.83;;;;;;;;;;5061198;27;88512;-55
2023/10/20 10:40:08;;;;;;;0.80;0.47;;;;;;;;;;5061290;27;88174;-55
2023/10/20 10:42:39;;;;;;;1.03;0.43;;;;;;;;;;5061032;27;87429;-55
2023/10/20 10:45:21;;;;;;;0.50;0.50;;;;;;;;;;5061442;27;87571;-55
2023/10/20 10:47:50;;;;;;;0.40;0.40;;;;;;;;;;5061183;27;88491;-55
2023/10/20 10:50:21;;;;;;;0.70;0.67;;;;;;;;;;5061179;27;88312;-56
2023/10/20 10:52:51;;;;;;;0.73;0.60;;;;;;;;;;5061477;27;87690;-55
2023/10/20 10:55:20;;;;;;;1.43;0.60;;;;;;;;;;5061508;27;87499;-56
2023/10/20 10:57:49;;;;;;;0.67;0.57;;;;;;;;;;5060476;27;89652;-55
2023/10/20 11:00:17;;;;;;;1.83;0.57;;;;;;;;;;5060560;27;89017;-55
2023/10/20 11:02:47;;;;;;;1.20;0.77;;;;;;;;;;5061210;27;88659;-55
2023/10/20 11:05:16;;;;;;;1.27;1.00;;;;;;;;;;5061463;27;87654;-55
2023/10/20 11:08:02;;;;;;;0.50;0.50;;;;;;;;;;5060862;27;88574;-55
2023/10/20 11:10:32;;;;;;;2.17;0.50;;;;;;;;;;5060913;27;87918;-55
2023/10/20 11:13:00;;;;;;;4.73;0.80;;;;;;;;;;5061071;27;88626;-55
2023/10/20 11:15:29;;;;;;;0.50;0.50;;;;;;;;;;5061083;27;87484;-55
2023/10/20 11:17:58;;;;;;;0.53;0.53;;;;;;;;;;5060842;27;87367;-55
2023/10/20 11:20:27;;;;;;;2.27;0.70;;;;;;;;;;5060771;27;88072;-55
2023/10/20 11:22:58;;;;;;;0.87;0.67;;;;;;;;;;5060478;27;88994;-55
2023/10/20 11:25:28;;;;;;;0.70;0.53;;;;;;;;;;5060499;27;87847;-55
2023/10/20 11:27:57;;;;;;;1.53;0.90;;;;;;;;;;5060720;27;88389;-55
2023/10/20 11:30:26;;;;;;;2.73;0.63;;;;;;;;;;5060768;27;88118;-55
2023/10/20 11:32:54;;;;;;;0.70;0.50;;;;;;;;;;5060620;27;87734;-55
2023/10/20 11:35:24;;;;;;;2.90;0.83;;;;;;;;;;5060960;27;87540;-55
2023/10/20 11:37:53;;;;;;;0.40;0.40;;;;;;;;;;5060552;27;87300;-55
2023/10/20 11:40:21;;;;;;;0.63;0.60;;;;;;;;;;5062196;27;88846;-56
2023/10/20 11:42:51;;;;;;;0.90;0.50;;;;;;;;;;5064411;27;88477;-55
2023/10/20 11:45:20;;;;;;;0.77;0.50;;;;;;;;;;5064308;27;87665;-55
2023/10/20 11:47:48;;;;;;;0.63;0.63;;;;;;;;;;5064062;27;89747;-55
2023/10/20 11:50:18;;;;;;;1.90;0.97;;;;;;;;;;5063739;27;89883;-55
2023/10/20 11:52:47;;;;;;;1.23;0.67;;;;;;;;;;5064015;27;88796;-55
2023/10/20 11:55:16;;;;;;;0.40;0.40;;;;;;;;;;5064110;27;87633;-55
2023/10/20 11:57:44;;;;;;;0.67;0.50;;;;;;;;;;5063483;27;89721;-56
2023/10/20 12:00:14;;;;;;;0.57;0.50;;;;;;;;;;5063835;27;88064;-56
2023/10/20 12:02:43;;;;;;;0.30;0.30;;;;;;;;;;5063816;27;87278;-55
2023/10/20 12:05:12;;;;;;;0.23;0.23;;;;;;;;;;5064052;27;87669;-55
2023/10/20 12:07:40;;;;;;;1.03;0.60;;;;;;;;;;5063813;27;89404;-55
2023/10/20 12:10:09;;;;;;;0.53;0.40;;;;;;;;;;5063367;27;88949;-55
2023/10/20 12:12:38;;;;;;;0.83;0.63;;;;;;;;;;5063326;27;88836;-55
2023/10/20 12:15:08;;;;;;;0.30;0.30;;;;;;;;;;5063453;27;87962;-55
2023/10/20 12:17:40;;;;;;;0.87;0.80;;;;;;;;;;5063624;27;88704;-55
2023/10/20 12:20:10;;;;;;;0.53;0.53;;;;;;;;;;5063470;27;88363;-55
2023/10/20 12:22:38;;;;;;;0.73;0.30;;;;;;;;;;5063224;27;89187;-55
2023/10/20 12:25:07;;;;;;;1.00;0.30;;;;;;;;;;5063493;27;87657;-55
2023/10/20 12:27:36;;;;;;;0.63;0.63;;;;;;;;;;5063621;27;89612;-55
2023/10/20 12:30:04;;;;;;;0.50;0.40;;;;;;;;;;5063521;27;87323;-55
2023/10/20 12:32:33;;;;;;;0.73;0.50;;;;;;;;;;5063430;27;87747;-55
2023/10/20 12:35:04;;;;;;;0.77;0.50;;;;;;;;;;5063648;27;87582;-55
2023/10/20 12:37:33;;;;;;;0.80;0.47;;;;;;;;;;5062693;27;88544;-55
2023/10/20 12:40:01;;;;;;;0.50;0.33;;;;;;;;;;5062837;27;88965;-56
2023/10/20 12:42:29;;;;;;;0.37;0.37;;;;;;;;;;5063231;27;88691;-55
2023/10/20 12:45:00;;;;;;;1.13;0.50;;;;;;;;;;5063487;27;87718;-55
2023/10/20 12:47:29;;;;;;;0.93;0.73;;;;;;;;;;5059558;27;88439;-56
2023/10/20 12:49:57;;;;;;;0.50;0.50;;;;;;;;;;5059149;27;88242;-56
2023/10/20 12:52:27;;;;;;;0.57;0.40;;;;;;;;;;5060910;27;88933;-56
2023/10/20 12:54:56;;;;;;;0.97;0.43;;;;;;;;;;5055298;27;87792;-56
2023/10/20 12:57:24;;;;;;;0.30;0.30;;;;;;;;;;5060263;27;87519;-56
2023/10/20 12:59:53;;;;;;;0.20;0.20;;;;;;;;;;5060781;27;88930;-56
2023/10/20 13:02:21;;;;;;;1.67;0.57;;;;;;;;;;5062967;27;88917;-56
2023/10/20 13:04:50;;;;;;;0.47;0.47;;;;;;;;;;5048916;27;88807;-56
2023/10/20 13:07:20;;;;;;;0.40;0.40;;;;;;;;;;5039440;27;88737;-56
2023/10/20 13:09:50;;;;;;;0.50;0.50;;;;;;;;;;5039419;28;89087;-56
2023/10/20 13:12:18;;;;;;;0.40;0.40;;;;;;;;;;5039353;28;88869;-56
2023/10/20 13:14:46;;;;;;;2.07;0.80;;;;;;;;;;5039954;27;87564;-56
2023/10/20 13:17:15;;;;;;;0.57;0.33;;;;;;;;;;5038937;27;88779;-56
2023/10/20 13:19:43;;;;;;;0.63;0.50;;;;;;;;;;5039535;28;88237;-56
2023/10/20 13:22:12;;;;;;;0.30;0.30;;;;;;;;;;5044375;27;88096;-56
2023/10/20 13:24:41;;;;;;;0.40;0.30;;;;;;;;;;5059339;27;87683;-57
2023/10/20 13:27:12;;;;;;;1.47;0.60;;;;;;;;;;5052285;27;88555;-56
2023/10/20 13:29:41;;;;;;;2.23;0.97;;;;;;;;;;5041561;27;90062;-56
2023/10/20 13:32:09;;;;;;;0.50;0.50;;;;;;;;;;5049229;27;88713;-56
2023/10/20 13:34:38;;;;;;;0.80;0.80;;;;;;;;;;5058760;27;88534;-56
2023/10/20 13:37:06;;;;;;;0.70;0.70;;;;;;;;;;5052781;27;88545;-56
2023/10/20 13:39:34;;;;;;;0.43;0.40;;;;;;;;;;5058268;27;89129;-56
2023/10/20 13:42:04;;;;;;;0.80;0.60;;;;;;;;;;5059171;27;88782;-56
2023/10/20 13:44:34;;;;;;;1.33;1.10;;;;;;;;;;5059654;27;87685;-56
2023/10/20 13:47:02;;;;;;;1.20;1.10;;;;;;;;;;5059561;27;89361;-56
2023/10/20 13:49:31;;;;;;;2.10;0.93;;;;;;;;;;5059217;27;88169;-56
2023/10/20 13:52:00;;;;;;;7.03;0.70;;;;;;;;;;5058699;27;87712;-56
2023/10/20 13:54:28;;;;;;;0.30;0.30;;;;;;;;;;5058873;27;88440;-56
2023/10/20 13:56:56;;;;;;;2.87;1.13;;;;;;;;;;5058052;27;89849;-56
2023/10/20 13:59:25;;;;;;;0.30;0.30;;;;;;;;;;5056814;27;89247;-56
2023/10/20 14:01:55;;;;;;;0.40;0.40;;;;;;;;;;5052606;27;88083;-56
2023/10/20 14:04:24;;;;;;;0.90;0.67;;;;;;;;;;5052637;27;87823;-56
2023/10/20 14:06:52;;;;;;;0.43;0.43;;;;;;;;;;5055771;27;89853;-57
2023/10/20 14:09:21;;;;;;;0.80;0.57;;;;;;;;;;5056839;27;88272;-57
2023/10/20 14:11:50;;;;;;;1.47;0.60;;;;;;;;;;5053756;27;88043;-56
2023/10/20 14:14:19;;;;;;;1.50;0.50;;;;;;;;;;5055017;27;87669;-57
2023/10/20 14:16:47;;;;;;;1.13;1.03;;;;;;;;;;5056535;27;89976;-57
2023/10/20 14:19:17;;;;;;;1.20;0.77;;;;;;;;;;5049542;27;90190;-57
2023/10/20 14:21:45;;;;;;;0.80;0.47;;;;;;;;;;5046867;27;88014;-57
2023/10/20 14:24:14;;;;;;;1.27;0.90;;;;;;;;;;5047365;27;88815;-56
2023/10/20 14:26:42;;;;;;;3.23;1.03;;;;;;;;;;5054827;27;89686;-56
2023/10/20 14:29:11;;;;;;;0.83;0.70;;;;;;;;;;5058502;27;88223;-56
2023/10/20 14:31:39;;;;;;;0.73;0.73;;;;;;;;;;5054637;27;88761;-56
2023/10/20 14:34:08;;;;;;;1.40;1.10;;;;;;;;;;5053534;27;87591;-56
2023/10/20 14:36:37;;;;;;;2.83;0.90;;;;;;;;;;5052943;27;88562;-56
2023/10/20 14:39:06;;;;;;;3.10;1.37;;;;;;;;;;5053327;27;87997;-57
2023/10/20 14:41:34;;;;;;;0.70;0.70;;;;;;;;;;5053290;27;88454;-56
2023/10/20 14:44:03;;;;;;;0.87;0.73;;;;;;;;;;5054880;27;88136;-56
2023/10/20 14:46:31;;;;;;;1.60;1.10;;;;;;;;;;5054892;27;90221;-57
2023/10/20 14:49:00;;;;;;;4.53;1.60;;;;;;;;;;5051478;27;88278;-57
2023/10/20 14:51:28;;;;;;;1.33;1.23;;;;;;;;;;5055267;27;88940;-57
2023/10/20 14:53:58;;;;;;;1.33;1.10;;;;;;;;;;5065128;27;87811;-56
2023/10/20 14:56:28;;;;;;;1.67;1.33;;;;;;;;;;5058654;27;89554;-56
2023/10/20 14:58:58;;;;;;;2.77;1.60;;;;;;;;;;5053765;27;88634;-56
2023/10/20 15:01:29;;;;;;;1.93;1.63;;;;;;;;;;5055908;27;89269;-56
2023/10/20 15:03:57;;;;;;;3.43;1.70;;;;;;;;;;5050327;27;87641;-56
2023/10/20 15:06:44;;;;;;;4.13;2.60;;;;;;;;;;5037439;28;88614;-56
2023/10/20 15:09:14;;;;;;;3.57;1.97;;;;;;;;;;5036970;27;90087;-56
2023/10/20 15:11:43;;;;;;;2.27;1.63;;;;;;;;;;5037044;28;89728;-56